sensor_id;sensor_type;location;lat;lon;timestamp;noise_LAeq;noise_LA_min;noise_LA_max;noise_LA01;noise_LA95
49568;Laerm;35474;51.032;6.998;2023-05-15T00:00:35;52.15;42.29;64.47;;
49568;Laerm;35474;51.032;6.998;2023-05-15T00:03:03;45.22;42.16;54.34;;
49568;Laerm;35474;51.032;6.998;2023-05-15T00:05:30;50.92;41.06;65.18;;
49568;Laerm;35474;51.032;6.998;2023-05-15T00:07:56;47.42;39.70;62.51;;
49568;Laerm;35474;51.032;6.998;2023-05-15T00:10:23;48.14;39.46;61.40;;
49568;Laerm;35474;51.032;6.998;2023-05-15T00:12:50;42.57;40.03;50.14;;
49568;Laerm;35474;51.032;6.998;2023-05-15T00:15:16;59.99;40.98;73.85;;
49568;Laerm;35474;51.032;6.998;2023-05-15T00:17:43;42.90;40.13;50.44;;
49568;Laerm;35474;51.032;6.998;2023-05-15T00:20:10;44.84;39.81;58.25;;
49568;Laerm;35474;51.032;6.998;2023-05-15T00:22:36;53.94;38.02;67.97;;
49568;Laerm;35474;51.032;6.998;2023-05-15T00:25:03;43.91;40.13;48.84;;
49568;Laerm;35474;51.032;6.998;2023-05-15T00:27:30;43.26;40.23;54.11;;
49568;Laerm;35474;51.032;6.998;2023-05-15T00:29:56;51.79;40.23;65.05;;
49568;Laerm;35474;51.032;6.998;2023-05-15T00:32:23;43.02;41.06;44.43;;
49568;Laerm;35474;51.032;6.998;2023-05-15T00:34:50;50.23;41.38;65.43;;
49568;Laerm;35474;51.032;6.998;2023-05-15T00:37:16;43.25;41.38;44.69;;
49568;Laerm;35474;51.032;6.998;2023-05-15T00:39:43;53.95;41.53;66.85;;
49568;Laerm;35474;51.032;6.998;2023-05-15T00:42:10;50.63;40.62;64.71;;
49568;Laerm;35474;51.032;6.998;2023-05-15T00:44:37;43.28;40.33;48.54;;
49568;Laerm;35474;51.032;6.998;2023-05-15T00:47:06;43.09;40.23;52.41;;
49568;Laerm;35474;51.032;6.998;2023-05-15T00:49:33;42.99;39.81;49.88;;
49568;Laerm;35474;51.032;6.998;2023-05-15T00:52:01;53.27;40.13;67.91;;
49568;Laerm;35474;51.032;6.998;2023-05-15T00:54:29;46.42;39.92;59.33;;
49568;Laerm;35474;51.032;6.998;2023-05-15T00:56:56;50.57;41.22;63.53;;
49568;Laerm;35474;51.032;6.998;2023-05-15T00:59:32;51.21;40.33;66.05;;
49568;Laerm;35474;51.032;6.998;2023-05-15T01:01:59;50.50;39.08;64.70;;
49568;Laerm;35474;51.032;6.998;2023-05-15T01:04:26;42.91;41.06;46.71;;
49568;Laerm;35474;51.032;6.998;2023-05-15T01:06:52;42.98;39.70;44.47;;
49568;Laerm;35474;51.032;6.998;2023-05-15T01:09:22;54.25;40.53;67.52;;
49568;Laerm;35474;51.032;6.998;2023-05-15T01:11:53;47.19;39.58;60.24;;
49568;Laerm;35474;51.032;6.998;2023-05-15T01:14:20;43.09;39.70;49.72;;
49568;Laerm;35474;51.032;6.998;2023-05-15T01:16:46;51.91;40.89;64.97;;
49568;Laerm;35474;51.032;6.998;2023-05-15T01:19:13;54.47;40.80;66.89;;
49568;Laerm;35474;51.032;6.998;2023-05-15T01:27:22;48.30;38.21;69.13;;
49568;Laerm;35474;51.032;6.998;2023-05-15T01:29:59;48.58;40.03;64.35;;
49568;Laerm;35474;51.032;6.998;2023-05-15T01:32:28;46.88;39.46;65.09;;
49568;Laerm;35474;51.032;6.998;2023-05-15T01:35:15;52.57;39.92;66.49;;
49568;Laerm;35474;51.032;6.998;2023-05-15T01:37:45;51.26;39.58;65.28;;
49568;Laerm;35474;51.032;6.998;2023-05-15T01:40:16;42.46;40.03;44.35;;
49568;Laerm;35474;51.032;6.998;2023-05-15T01:42:53;42.66;40.23;44.39;;
49568;Laerm;35474;51.032;6.998;2023-05-15T01:45:22;43.33;40.43;49.51;;
49568;Laerm;35474;51.032;6.998;2023-05-15T01:47:52;53.01;39.81;65.54;;
49568;Laerm;35474;51.032;6.998;2023-05-15T01:50:20;52.82;40.62;68.53;;
49568;Laerm;35474;51.032;6.998;2023-05-15T01:52:50;51.14;40.80;65.09;;
49568;Laerm;35474;51.032;6.998;2023-05-15T01:55:20;53.14;41.06;66.80;;
49568;Laerm;35474;51.032;6.998;2023-05-15T01:57:49;48.90;40.33;62.01;;
49568;Laerm;35474;51.032;6.998;2023-05-15T02:00:17;46.71;41.38;60.39;;
49568;Laerm;35474;51.032;6.998;2023-05-15T02:02:45;45.31;40.89;67.72;;
49568;Laerm;35474;51.032;6.998;2023-05-15T02:05:13;49.71;41.38;64.33;;
49568;Laerm;35474;51.032;6.998;2023-05-15T02:07:41;42.85;40.62;44.27;;
49568;Laerm;35474;51.032;6.998;2023-05-15T02:10:11;43.12;41.06;44.58;;
49568;Laerm;35474;51.032;6.998;2023-05-15T02:12:41;52.71;41.61;64.43;;
49568;Laerm;35474;51.032;6.998;2023-05-15T02:15:12;54.95;41.30;70.46;;
49568;Laerm;35474;51.032;6.998;2023-05-15T02:17:42;52.78;41.53;66.29;;
49568;Laerm;35474;51.032;6.998;2023-05-15T02:20:09;55.12;41.30;68.50;;
49568;Laerm;35474;51.032;6.998;2023-05-15T02:22:36;52.41;41.61;66.61;;
49568;Laerm;35474;51.032;6.998;2023-05-15T02:25:04;47.70;41.22;62.36;;
49568;Laerm;35474;51.032;6.998;2023-05-15T02:30:19;43.48;40.18;50.14;;
49568;Laerm;35474;51.032;6.998;2023-05-15T02:38:35;50.02;41.53;62.94;;
49568;Laerm;35474;51.032;6.998;2023-05-15T02:41:04;53.40;41.68;64.73;;
49568;Laerm;35474;51.032;6.998;2023-05-15T02:43:31;56.82;41.68;68.26;;
49568;Laerm;35474;51.032;6.998;2023-05-15T02:45:58;57.09;42.03;72.75;;
49568;Laerm;35474;51.032;6.998;2023-05-15T02:48:26;55.41;40.80;65.69;;
49568;Laerm;35474;51.032;6.998;2023-05-15T02:50:52;53.78;40.98;67.96;;
49568;Laerm;35474;51.032;6.998;2023-05-15T02:53:19;59.40;41.38;69.93;;
49568;Laerm;35474;51.032;6.998;2023-05-15T02:55:46;55.86;41.68;68.27;;
49568;Laerm;35474;51.032;6.998;2023-05-15T02:58:13;50.72;41.89;65.16;;
49568;Laerm;35474;51.032;6.998;2023-05-15T03:00:40;56.16;41.22;68.82;;
49568;Laerm;35474;51.032;6.998;2023-05-15T03:03:07;59.90;41.53;79.14;;
49568;Laerm;35474;51.032;6.998;2023-05-15T03:05:34;57.52;41.30;73.26;;
49568;Laerm;35474;51.032;6.998;2023-05-15T03:08:00;61.97;44.76;70.97;;
49568;Laerm;35474;51.032;6.998;2023-05-15T03:10:27;57.42;42.53;70.54;;
49568;Laerm;35474;51.032;6.998;2023-05-15T03:12:55;56.63;41.82;70.49;;
49568;Laerm;35474;51.032;6.998;2023-05-15T03:15:24;54.11;42.16;67.70;;
49568;Laerm;35474;51.032;6.998;2023-05-15T03:17:51;58.14;42.22;76.36;;
49568;Laerm;35474;51.032;6.998;2023-05-15T03:20:18;58.04;41.46;72.89;;
49568;Laerm;35474;51.032;6.998;2023-05-15T03:22:44;61.90;44.65;82.25;;
49568;Laerm;35474;51.032;6.998;2023-05-15T03:25:11;67.83;42.47;89.12;;
49568;Laerm;35474;51.032;6.998;2023-05-15T03:27:38;63.34;44.69;77.84;;
49568;Laerm;35474;51.032;6.998;2023-05-15T03:30:05;61.09;42.47;75.74;;
49568;Laerm;35474;51.032;6.998;2023-05-15T03:32:32;61.28;43.28;71.72;;
49568;Laerm;35474;51.032;6.998;2023-05-15T03:34:59;60.00;42.09;78.04;;
49568;Laerm;35474;51.032;6.998;2023-05-15T03:37:26;60.24;42.47;82.67;;
49568;Laerm;35474;51.032;6.998;2023-05-15T03:39:53;63.53;43.19;79.66;;
49568;Laerm;35474;51.032;6.998;2023-05-15T03:42:19;63.53;46.59;78.88;;
49568;Laerm;35474;51.032;6.998;2023-05-15T03:44:49;61.68;43.34;71.40;;
49568;Laerm;35474;51.032;6.998;2023-05-15T03:47:16;62.75;43.39;71.08;;
49568;Laerm;35474;51.032;6.998;2023-05-15T03:49:44;64.63;43.34;82.42;;
49568;Laerm;35474;51.032;6.998;2023-05-15T03:52:11;62.02;43.24;72.95;;
49568;Laerm;35474;51.032;6.998;2023-05-15T03:54:38;61.75;45.30;71.23;;
49568;Laerm;35474;51.032;6.998;2023-05-15T03:57:05;60.09;42.71;71.88;;
49568;Laerm;35474;51.032;6.998;2023-05-15T03:59:32;62.00;42.93;70.90;;
49568;Laerm;35474;51.032;6.998;2023-05-15T04:01:59;60.06;42.03;71.37;;
49568;Laerm;35474;51.032;6.998;2023-05-15T04:04:31;61.52;42.93;73.68;;
49568;Laerm;35474;51.032;6.998;2023-05-15T04:06:58;59.91;42.03;77.49;;
49568;Laerm;35474;51.032;6.998;2023-05-15T04:09:25;62.02;42.59;73.23;;
49568;Laerm;35474;51.032;6.998;2023-05-15T04:11:51;62.44;45.27;69.70;;
49568;Laerm;35474;51.032;6.998;2023-05-15T04:14:18;60.21;42.88;68.47;;
49568;Laerm;35474;51.032;6.998;2023-05-15T04:16:44;62.54;42.88;71.58;;
49568;Laerm;35474;51.032;6.998;2023-05-15T04:19:11;64.01;44.35;73.74;;
49568;Laerm;35474;51.032;6.998;2023-05-15T04:21:38;63.42;45.75;72.37;;
49568;Laerm;35474;51.032;6.998;2023-05-15T04:24:06;62.50;43.04;71.32;;
49568;Laerm;35474;51.032;6.998;2023-05-15T04:26:33;62.67;43.58;71.04;;
49568;Laerm;35474;51.032;6.998;2023-05-15T04:29:00;64.79;45.04;76.53;;
49568;Laerm;35474;51.032;6.998;2023-05-15T04:31:30;63.76;43.72;73.01;;
49568;Laerm;35474;51.032;6.998;2023-05-15T04:33:57;63.53;43.44;73.09;;
49568;Laerm;35474;51.032;6.998;2023-05-15T04:36:24;63.70;43.54;71.60;;
49568;Laerm;35474;51.032;6.998;2023-05-15T04:38:50;63.37;46.15;75.46;;
49568;Laerm;35474;51.032;6.998;2023-05-15T04:41:17;63.17;44.19;72.22;;
49568;Laerm;35474;51.032;6.998;2023-05-15T04:43:44;64.64;50.70;76.89;;
49568;Laerm;35474;51.032;6.998;2023-05-15T04:46:11;64.41;45.94;72.64;;
49568;Laerm;35474;51.032;6.998;2023-05-15T04:48:38;62.76;44.97;72.58;;
49568;Laerm;35474;51.032;6.998;2023-05-15T04:51:04;66.46;51.95;72.84;;
49568;Laerm;35474;51.032;6.998;2023-05-15T04:53:31;64.64;49.34;72.52;;
49568;Laerm;35474;51.032;6.998;2023-05-15T04:55:57;64.13;43.54;71.60;;
49568;Laerm;35474;51.032;6.998;2023-05-15T04:58:24;64.26;41.68;74.41;;
49568;Laerm;35474;51.032;6.998;2023-05-15T05:00:50;62.54;42.98;70.71;;
49568;Laerm;35474;51.032;6.998;2023-05-15T05:03:17;64.02;43.58;72.03;;
49568;Laerm;35474;51.032;6.998;2023-05-15T05:05:44;65.74;47.26;75.47;;
49568;Laerm;35474;51.032;6.998;2023-05-15T05:08:10;66.08;46.40;75.34;;
49568;Laerm;35474;51.032;6.998;2023-05-15T05:10:37;65.07;42.93;74.67;;
49568;Laerm;35474;51.032;6.998;2023-05-15T05:13:03;64.60;50.35;70.44;;
49568;Laerm;35474;51.032;6.998;2023-05-15T05:15:30;76.93;48.26;97.68;;
49568;Laerm;35474;51.032;6.998;2023-05-15T05:17:56;64.23;44.65;76.53;;
49568;Laerm;35474;51.032;6.998;2023-05-15T05:20:23;64.67;50.25;73.58;;
49568;Laerm;35474;51.032;6.998;2023-05-15T05:22:50;66.55;50.77;72.53;;
49568;Laerm;35474;51.032;6.998;2023-05-15T05:25:17;64.20;46.18;72.06;;
49568;Laerm;35474;51.032;6.998;2023-05-15T05:27:43;64.97;47.67;72.09;;
49568;Laerm;35474;51.032;6.998;2023-05-15T05:30:10;66.07;45.45;73.26;;
49568;Laerm;35474;51.032;6.998;2023-05-15T05:32:37;65.06;51.07;74.23;;
49568;Laerm;35474;51.032;6.998;2023-05-15T05:35:04;80.31;50.42;101.25;;
49568;Laerm;35474;51.032;6.998;2023-05-15T05:37:31;65.32;51.92;80.20;;
49568;Laerm;35474;51.032;6.998;2023-05-15T05:39:58;64.74;47.86;80.66;;
49568;Laerm;35474;51.032;6.998;2023-05-15T05:42:24;63.65;47.30;69.52;;
49568;Laerm;35474;51.032;6.998;2023-05-15T05:44:52;64.53;50.98;70.86;;
49568;Laerm;35474;51.032;6.998;2023-05-15T05:47:18;64.84;51.78;74.66;;
49568;Laerm;35474;51.032;6.998;2023-05-15T05:49:45;64.91;51.34;71.84;;
49568;Laerm;35474;51.032;6.998;2023-05-15T05:52:13;65.04;52.48;83.21;;
49568;Laerm;35474;51.032;6.998;2023-05-15T05:54:41;65.63;53.16;82.98;;
49568;Laerm;35474;51.032;6.998;2023-05-15T05:57:08;65.41;56.48;76.95;;
49568;Laerm;35474;51.032;6.998;2023-05-15T05:59:35;64.69;54.54;74.63;;
49568;Laerm;35474;51.032;6.998;2023-05-15T06:02:03;63.79;51.62;73.15;;
49568;Laerm;35474;51.032;6.998;2023-05-15T06:04:31;64.94;53.82;78.90;;
49568;Laerm;35474;51.032;6.998;2023-05-15T06:06:58;62.84;53.17;72.78;;
49568;Laerm;35474;51.032;6.998;2023-05-15T06:09:25;64.04;54.63;73.29;;
49568;Laerm;35474;51.032;6.998;2023-05-15T06:11:52;65.59;56.62;84.66;;
49568;Laerm;35474;51.032;6.998;2023-05-15T06:14:18;65.67;52.33;85.79;;
49568;Laerm;35474;51.032;6.998;2023-05-15T06:16:46;64.86;48.15;72.14;;
49568;Laerm;35474;51.032;6.998;2023-05-15T06:19:13;65.51;44.19;78.36;;
49568;Laerm;35474;51.032;6.998;2023-05-15T06:21:39;64.96;46.10;77.69;;
49568;Laerm;35474;51.032;6.998;2023-05-15T06:24:06;65.02;44.97;77.04;;
49568;Laerm;35474;51.032;6.998;2023-05-15T06:26:33;64.57;45.45;73.19;;
49568;Laerm;35474;51.032;6.998;2023-05-15T06:28:59;65.39;46.35;70.56;;
49568;Laerm;35474;51.032;6.998;2023-05-15T06:32:34;66.80;47.72;81.00;;
49568;Laerm;35474;51.032;6.998;2023-05-15T06:35:01;65.77;52.41;71.42;;
49568;Laerm;35474;51.032;6.998;2023-05-15T06:37:29;65.41;54.11;74.00;;
49568;Laerm;35474;51.032;6.998;2023-05-15T06:39:56;65.61;52.02;72.71;;
49568;Laerm;35474;51.032;6.998;2023-05-15T06:42:22;66.02;57.65;73.87;;
49568;Laerm;35474;51.032;6.998;2023-05-15T06:44:49;65.40;52.19;76.66;;
49568;Laerm;35474;51.032;6.998;2023-05-15T06:47:16;65.00;52.60;82.67;;
49568;Laerm;35474;51.032;6.998;2023-05-15T06:49:42;65.35;55.50;73.44;;
49568;Laerm;35474;51.032;6.998;2023-05-15T06:52:09;66.50;54.41;75.89;;
49568;Laerm;35474;51.032;6.998;2023-05-15T06:54:36;64.74;48.03;78.84;;
49568;Laerm;35474;51.032;6.998;2023-05-15T06:57:03;63.68;52.02;71.94;;
49568;Laerm;35474;51.032;6.998;2023-05-15T06:59:29;64.36;52.31;76.11;;
49568;Laerm;35474;51.032;6.998;2023-05-15T07:02:02;65.83;52.92;75.75;;
49568;Laerm;35474;51.032;6.998;2023-05-15T07:04:29;65.49;53.21;77.08;;
49568;Laerm;35474;51.032;6.998;2023-05-15T07:06:56;65.58;49.10;74.71;;
49568;Laerm;35474;51.032;6.998;2023-05-15T07:09:23;64.95;53.71;78.90;;
49568;Laerm;35474;51.032;6.998;2023-05-15T07:11:50;66.60;48.41;88.30;;
49568;Laerm;35474;51.032;6.998;2023-05-15T07:14:17;66.20;48.05;85.42;;
49568;Laerm;35474;51.032;6.998;2023-05-15T07:16:43;65.16;43.44;72.82;;
49568;Laerm;35474;51.032;6.998;2023-05-15T07:19:12;66.38;46.59;88.10;;
49568;Laerm;35474;51.032;6.998;2023-05-15T07:21:39;66.16;49.02;79.35;;
49568;Laerm;35474;51.032;6.998;2023-05-15T07:24:05;64.71;49.51;76.95;;
49568;Laerm;35474;51.032;6.998;2023-05-15T07:26:32;68.85;56.16;90.71;;
49568;Laerm;35474;51.032;6.998;2023-05-15T07:29:09;66.17;52.31;80.24;;
49568;Laerm;35474;51.032;6.998;2023-05-15T07:31:38;66.30;55.58;80.26;;
49568;Laerm;35474;51.032;6.998;2023-05-15T07:34:05;67.49;48.74;82.70;;
49568;Laerm;35474;51.032;6.998;2023-05-15T07:36:32;64.62;43.90;70.93;;
49568;Laerm;35474;51.032;6.998;2023-05-15T07:38:58;65.46;51.76;79.64;;
49568;Laerm;35474;51.032;6.998;2023-05-15T07:41:25;65.88;52.96;78.72;;
49568;Laerm;35474;51.032;6.998;2023-05-15T07:43:52;67.54;51.95;85.41;;
49568;Laerm;35474;51.032;6.998;2023-05-15T07:46:18;65.38;54.35;71.90;;
49568;Laerm;35474;51.032;6.998;2023-05-15T07:48:45;64.74;48.08;85.05;;
49568;Laerm;35474;51.032;6.998;2023-05-15T07:51:11;67.61;44.47;77.49;;
49568;Laerm;35474;51.032;6.998;2023-05-15T07:53:38;65.24;51.61;70.69;;
49568;Laerm;35474;51.032;6.998;2023-05-15T07:56:05;66.49;56.28;71.23;;
49568;Laerm;35474;51.032;6.998;2023-05-15T07:58:31;66.45;49.52;78.42;;
49568;Laerm;35474;51.032;6.998;2023-05-15T08:01:00;65.32;49.78;79.10;;
49568;Laerm;35474;51.032;6.998;2023-05-15T08:03:27;66.26;51.53;76.28;;
49568;Laerm;35474;51.032;6.998;2023-05-15T08:05:54;67.44;53.36;85.20;;
49568;Laerm;35474;51.032;6.998;2023-05-15T08:08:21;66.47;51.35;73.42;;
49568;Laerm;35474;51.032;6.998;2023-05-15T08:10:47;65.55;50.78;73.23;;
49568;Laerm;35474;51.032;6.998;2023-05-15T08:13:14;66.02;49.88;75.00;;
49568;Laerm;35474;51.032;6.998;2023-05-15T08:15:42;66.30;55.47;76.68;;
49568;Laerm;35474;51.032;6.998;2023-05-15T08:18:09;64.52;49.19;71.96;;
49568;Laerm;35474;51.032;6.998;2023-05-15T08:20:36;65.76;45.34;73.74;;
49568;Laerm;35474;51.032;6.998;2023-05-15T08:23:04;62.62;47.02;70.65;;
49568;Laerm;35474;51.032;6.998;2023-05-15T08:25:30;66.70;49.32;74.41;;
49568;Laerm;35474;51.032;6.998;2023-05-15T08:27:57;63.82;45.94;69.29;;
49568;Laerm;35474;51.032;6.998;2023-05-15T08:30:24;64.36;48.05;72.75;;
49568;Laerm;35474;51.032;6.998;2023-05-15T08:32:50;64.28;49.10;71.84;;
49568;Laerm;35474;51.032;6.998;2023-05-15T08:35:17;66.52;52.39;73.98;;
49568;Laerm;35474;51.032;6.998;2023-05-15T08:37:44;64.58;53.23;71.96;;
49568;Laerm;35474;51.032;6.998;2023-05-15T08:40:11;78.40;46.73;95.86;;
49568;Laerm;35474;51.032;6.998;2023-05-15T08:42:47;75.90;54.85;97.92;;
49568;Laerm;35474;51.032;6.998;2023-05-15T08:45:15;65.60;47.00;72.20;;
49568;Laerm;35474;51.032;6.998;2023-05-15T08:47:42;65.11;45.77;74.53;;
49568;Laerm;35474;51.032;6.998;2023-05-15T08:50:12;65.75;50.56;73.75;;
49568;Laerm;35474;51.032;6.998;2023-05-15T08:52:42;64.68;52.80;72.98;;
49568;Laerm;35474;51.032;6.998;2023-05-15T08:55:12;64.94;51.10;71.77;;
49568;Laerm;35474;51.032;6.998;2023-05-15T08:57:39;63.68;46.28;71.66;;
49568;Laerm;35474;51.032;6.998;2023-05-15T09:00:07;63.57;42.82;72.75;;
49568;Laerm;35474;51.032;6.998;2023-05-15T09:02:35;64.77;50.97;73.28;;
49568;Laerm;35474;51.032;6.998;2023-05-15T09:05:03;65.12;49.39;72.08;;
49568;Laerm;35474;51.032;6.998;2023-05-15T09:07:31;65.46;50.77;72.60;;
49568;Laerm;35474;51.032;6.998;2023-05-15T09:09:58;65.19;44.43;72.99;;
49568;Laerm;35474;51.032;6.998;2023-05-15T09:12:26;66.43;48.16;74.10;;
49568;Laerm;35474;51.032;6.998;2023-05-15T09:15:14;64.92;55.24;71.38;;
49568;Laerm;35474;51.032;6.998;2023-05-15T09:17:43;66.89;52.40;74.85;;
49568;Laerm;35474;51.032;6.998;2023-05-15T09:20:26;63.40;42.03;77.82;;
49568;Laerm;35474;51.032;6.998;2023-05-15T09:22:57;66.31;51.15;75.53;;
49568;Laerm;35474;51.032;6.998;2023-05-15T09:25:37;66.67;47.38;75.43;;
49568;Laerm;35474;51.032;6.998;2023-05-15T09:28:08;66.41;50.53;79.89;;
49568;Laerm;35474;51.032;6.998;2023-05-15T09:30:41;65.08;55.19;73.73;;
49568;Laerm;35474;51.032;6.998;2023-05-15T09:33:08;65.92;57.62;76.74;;
49568;Laerm;35474;51.032;6.998;2023-05-15T09:35:38;65.41;50.55;77.70;;
49568;Laerm;35474;51.032;6.998;2023-05-15T09:38:11;65.46;48.77;78.85;;
49568;Laerm;35474;51.032;6.998;2023-05-15T09:40:38;64.11;47.86;75.66;;
49568;Laerm;35474;51.032;6.998;2023-05-15T09:43:09;65.73;54.02;73.81;;
49568;Laerm;35474;51.032;6.998;2023-05-15T09:45:37;66.99;56.24;75.81;;
49568;Laerm;35474;51.032;6.998;2023-05-15T09:48:05;64.60;47.18;72.88;;
49568;Laerm;35474;51.032;6.998;2023-05-15T09:50:36;64.67;55.81;78.44;;
49568;Laerm;35474;51.032;6.998;2023-05-15T09:53:04;66.04;49.85;78.31;;
49568;Laerm;35474;51.032;6.998;2023-05-15T09:55:32;66.44;51.35;82.14;;
49568;Laerm;35474;51.032;6.998;2023-05-15T09:58:07;63.03;46.23;70.95;;
49568;Laerm;35474;51.032;6.998;2023-05-15T10:00:34;65.79;50.01;79.93;;
49568;Laerm;35474;51.032;6.998;2023-05-15T10:03:15;64.72;52.50;76.71;;
49568;Laerm;35474;51.032;6.998;2023-05-15T10:05:42;64.45;49.83;76.02;;
49568;Laerm;35474;51.032;6.998;2023-05-15T10:08:10;63.72;51.47;75.85;;
49568;Laerm;35474;51.032;6.998;2023-05-15T10:10:37;76.95;53.45;98.76;;
49568;Laerm;35474;51.032;6.998;2023-05-15T10:13:06;65.29;47.76;77.83;;
49568;Laerm;35474;51.032;6.998;2023-05-15T10:15:34;64.84;47.07;72.28;;
49568;Laerm;35474;51.032;6.998;2023-05-15T10:18:02;64.26;45.66;77.72;;
49568;Laerm;35474;51.032;6.998;2023-05-15T10:20:31;64.77;53.56;77.92;;
49568;Laerm;35474;51.032;6.998;2023-05-15T10:23:03;66.72;50.31;85.30;;
49568;Laerm;35474;51.032;6.998;2023-05-15T10:25:38;64.88;43.24;76.83;;
49568;Laerm;35474;51.032;6.998;2023-05-15T10:28:08;64.18;46.13;70.73;;
49568;Laerm;35474;51.032;6.998;2023-05-15T10:30:36;63.78;49.12;69.77;;
49568;Laerm;35474;51.032;6.998;2023-05-15T10:33:06;65.31;45.83;79.66;;
49568;Laerm;35474;51.032;6.998;2023-05-15T10:35:34;65.55;45.77;76.82;;
49568;Laerm;35474;51.032;6.998;2023-05-15T10:38:03;65.56;48.95;80.49;;
49568;Laerm;35474;51.032;6.998;2023-05-15T10:40:36;64.32;48.28;74.98;;
49568;Laerm;35474;51.032;6.998;2023-05-15T10:43:04;66.60;54.32;80.14;;
49568;Laerm;35474;51.032;6.998;2023-05-15T10:45:31;68.64;55.39;88.94;;
49568;Laerm;35474;51.032;6.998;2023-05-15T10:47:59;65.61;51.19;77.06;;
49568;Laerm;35474;51.032;6.998;2023-05-15T10:50:26;66.14;53.20;81.85;;
49568;Laerm;35474;51.032;6.998;2023-05-15T10:52:54;66.88;54.23;86.40;;
49568;Laerm;35474;51.032;6.998;2023-05-15T10:55:21;72.53;52.11;89.78;;
49568;Laerm;35474;51.032;6.998;2023-05-15T10:57:48;64.80;48.71;78.90;;
49568;Laerm;35474;51.032;6.998;2023-05-15T11:02:49;68.61;50.36;81.92;;
49568;Laerm;35474;51.032;6.998;2023-05-15T11:05:19;64.59;55.02;79.55;;
49568;Laerm;35474;51.032;6.998;2023-05-15T11:10:41;80.66;50.68;97.51;;
49568;Laerm;35474;51.032;6.998;2023-05-15T11:13:07;68.86;58.50;86.66;;
49568;Laerm;35474;51.032;6.998;2023-05-15T11:15:44;66.64;53.46;83.63;;
49568;Laerm;35474;51.032;6.998;2023-05-15T11:18:11;68.47;50.95;90.35;;
49568;Laerm;35474;51.032;6.998;2023-05-15T11:20:40;69.34;46.57;92.08;;
49568;Laerm;35474;51.032;6.998;2023-05-15T11:23:07;71.16;49.53;88.99;;
49568;Laerm;35474;51.032;6.998;2023-05-15T11:25:35;66.46;45.94;85.52;;
49568;Laerm;35474;51.032;6.998;2023-05-15T11:28:03;65.09;48.99;91.45;;
49568;Laerm;35474;51.032;6.998;2023-05-15T11:30:37;65.31;46.50;78.48;;
49568;Laerm;35474;51.032;6.998;2023-05-15T11:33:12;67.09;54.10;83.01;;
49568;Laerm;35474;51.032;6.998;2023-05-15T11:35:43;66.09;53.35;81.53;;
49568;Laerm;35474;51.032;6.998;2023-05-15T11:38:22;68.03;51.13;86.20;;
49568;Laerm;35474;51.032;6.998;2023-05-15T11:40:58;70.03;49.90;88.26;;
49568;Laerm;35474;51.032;6.998;2023-05-15T11:43:32;65.43;44.43;84.45;;
49568;Laerm;35474;51.032;6.998;2023-05-15T11:46:03;65.41;53.17;77.64;;
49568;Laerm;35474;51.032;6.998;2023-05-15T11:51:01;71.67;53.82;90.38;;
49568;Laerm;35474;51.032;6.998;2023-05-15T11:53:29;67.21;54.57;77.81;;
49568;Laerm;35474;51.032;6.998;2023-05-15T11:55:56;72.02;54.00;91.20;;
49568;Laerm;35474;51.032;6.998;2023-05-15T11:58:24;67.62;58.15;84.28;;
49568;Laerm;35474;51.032;6.998;2023-05-15T12:00:52;66.09;50.64;79.87;;
49568;Laerm;35474;51.032;6.998;2023-05-15T12:03:30;73.50;52.67;95.19;;
49568;Laerm;35474;51.032;6.998;2023-05-15T12:06:00;71.57;56.67;90.91;;
49568;Laerm;35474;51.032;6.998;2023-05-15T12:08:34;70.54;55.08;97.61;;
49568;Laerm;35474;51.032;6.998;2023-05-15T12:11:04;68.34;58.33;82.07;;
49568;Laerm;35474;51.032;6.998;2023-05-15T12:13:32;70.72;57.98;90.85;;
49568;Laerm;35474;51.032;6.998;2023-05-15T12:16:00;71.79;50.90;94.29;;
49568;Laerm;35474;51.032;6.998;2023-05-15T12:18:27;69.26;48.99;95.67;;
49568;Laerm;35474;51.032;6.998;2023-05-15T12:20:53;68.26;46.62;87.26;;
49568;Laerm;35474;51.032;6.998;2023-05-15T12:23:23;68.24;46.71;87.85;;
49568;Laerm;35474;51.032;6.998;2023-05-15T12:25:52;73.60;50.59;95.84;;
49568;Laerm;35474;51.032;6.998;2023-05-15T12:28:23;75.91;56.30;94.85;;
49568;Laerm;35474;51.032;6.998;2023-05-15T12:30:50;65.85;52.76;80.29;;
49568;Laerm;35474;51.032;6.998;2023-05-15T12:33:17;71.23;55.97;89.06;;
49568;Laerm;35474;51.032;6.998;2023-05-15T12:35:49;65.41;48.58;84.66;;
49568;Laerm;35474;51.032;6.998;2023-05-15T12:38:18;66.77;56.56;79.71;;
49568;Laerm;35474;51.032;6.998;2023-05-15T12:40:45;68.15;57.17;84.86;;
49568;Laerm;35474;51.032;6.998;2023-05-15T12:43:12;72.29;54.45;90.05;;
49568;Laerm;35474;51.032;6.998;2023-05-15T12:45:40;65.99;47.30;82.77;;
49568;Laerm;35474;51.032;6.998;2023-05-15T12:48:13;70.95;55.48;91.12;;
49568;Laerm;35474;51.032;6.998;2023-05-15T12:50:43;69.90;51.99;86.45;;
49568;Laerm;35474;51.032;6.998;2023-05-15T12:53:13;65.45;46.89;78.23;;
49568;Laerm;35474;51.032;6.998;2023-05-15T12:55:41;64.31;45.83;79.81;;
49568;Laerm;35474;51.032;6.998;2023-05-15T12:58:10;66.84;48.00;86.43;;
49568;Laerm;35474;51.032;6.998;2023-05-15T13:00:39;69.55;52.83;90.60;;
49568;Laerm;35474;51.032;6.998;2023-05-15T13:03:09;68.10;46.15;86.68;;
49568;Laerm;35474;51.032;6.998;2023-05-15T13:05:37;70.16;49.98;90.49;;
49568;Laerm;35474;51.032;6.998;2023-05-15T13:08:05;77.42;52.36;97.98;;
49568;Laerm;35474;51.032;6.998;2023-05-15T13:10:35;70.28;53.21;88.44;;
49568;Laerm;35474;51.032;6.998;2023-05-15T13:13:02;70.64;55.58;91.84;;
49568;Laerm;35474;51.032;6.998;2023-05-15T13:15:37;71.60;49.71;91.06;;
49568;Laerm;35474;51.032;6.998;2023-05-15T13:18:09;66.32;48.96;77.60;;
49568;Laerm;35474;51.032;6.998;2023-05-15T13:23:05;71.16;53.81;90.00;;
49568;Laerm;35474;51.032;6.998;2023-05-15T13:25:33;70.82;56.71;87.66;;
49568;Laerm;35474;51.032;6.998;2023-05-15T13:28:02;69.33;52.11;85.77;;
49568;Laerm;35474;51.032;6.998;2023-05-15T13:30:29;66.18;53.32;77.50;;
49568;Laerm;35474;51.032;6.998;2023-05-15T13:32:56;74.58;47.20;94.76;;
49568;Laerm;35474;51.032;6.998;2023-05-15T13:35:23;74.86;54.51;94.38;;
49568;Laerm;35474;51.032;6.998;2023-05-15T13:37:49;66.90;56.05;85.66;;
49568;Laerm;35474;51.032;6.998;2023-05-15T13:40:16;79.48;59.20;98.17;;
49568;Laerm;35474;51.032;6.998;2023-05-15T13:42:43;68.76;51.25;88.57;;
49568;Laerm;35474;51.032;6.998;2023-05-15T13:45:11;65.43;50.84;72.98;;
49568;Laerm;35474;51.032;6.998;2023-05-15T13:47:38;68.15;57.45;88.41;;
49568;Laerm;35474;51.032;6.998;2023-05-15T13:50:10;74.57;47.72;95.09;;
49568;Laerm;35474;51.032;6.998;2023-05-15T13:52:37;73.90;49.36;96.44;;
49568;Laerm;35474;51.032;6.998;2023-05-15T13:55:05;67.40;55.11;84.54;;
49568;Laerm;35474;51.032;6.998;2023-05-15T13:57:32;67.24;44.58;89.37;;
49568;Laerm;35474;51.032;6.998;2023-05-15T13:59:58;71.60;50.24;89.68;;
49568;Laerm;35474;51.032;6.998;2023-05-15T14:02:25;69.25;54.93;86.33;;
49568;Laerm;35474;51.032;6.998;2023-05-15T14:04:52;66.46;53.74;79.34;;
49568;Laerm;35474;51.032;6.998;2023-05-15T14:07:22;68.78;57.36;85.38;;
49568;Laerm;35474;51.032;6.998;2023-05-15T14:09:50;69.28;55.51;92.24;;
49568;Laerm;35474;51.032;6.998;2023-05-15T14:12:17;65.92;47.74;75.32;;
49568;Laerm;35474;51.032;6.998;2023-05-15T14:14:46;67.41;52.16;89.48;;